METAR Data
IDs: Format: Raw Decoded Include TAF

Data at: 0114 UTC 06 Dec 2019

KMKL 060053Z AUTO 14003KT 10SM CLR 12/02 A3010 RMK AO2 SLP192 T01170022
KMKL 052353Z 00000KT 10SM FEW120 13/02 A3008 RMK AO2 SLP185 T01330022 10172 20133 53002
KMKL 052253Z 18004KT 10SM SCT120 14/01 A3007 RMK AO2 SLP184 T01390011
KMKL 052153Z 17004KT 10SM BKN110 15/03 A3007 RMK AO2 SLP183 T01500028
KMKL 052053Z 17005KT 10SM BKN120 16/02 A3007 RMK AO2 SLP183 T01560017 56012
KMKL 051953Z 18007KT 10SM CLR 16/01 A3007 RMK AO2 SLP183 T01610006
KMKL 051853Z 20009KT 10SM CLR 17/01 A3007 RMK AO2 SLP184 T01670006
KMKL 051753Z 18006KT 10SM CLR 16/01 A3010 RMK AO2 SLP195 T01610006 10167 20006 58010
KMKL 051653Z VRB04KT 10SM CLR 16/01 A3013 RMK AO2 SLP204 T01560011
KMKL 051553Z 14005KT 10SM CLR 14/02 A3014 RMK AO2 SLP206 T01390017
KMKL 051453Z 00000KT 10SM CLR 08/04 A3013 RMK AO2 SLP206 T00830039 51012
KMKL 051353Z 00000KT 10SM CLR 03/02 A3013 RMK AO2 SLP205 T00280017
KMKL 051253Z 00000KT 10SM CLR 01/01 A3012 RMK AO2 SLP200 T00110006
KMKL 051153Z AUTO 00000KT 10SM CLR 02/01 A3010 RMK AO2 SLP194 T00170006 10017 21006 53014
KMKL 051053Z AUTO 00000KT 10SM CLR 02/01 A3008 RMK AO2 SLP186 T00170006
KMKL 050953Z AUTO 00000KT 10SM CLR 01/00 A3007 RMK AO2 SLP184 T00110000
KMKL 050853Z AUTO 00000KT 10SM CLR 00/M01 A3006 RMK AO2 SLP179 T00001011 51008
KMKL 050753Z AUTO 00000KT 10SM CLR 01/M01 A3005 RMK AO2 SLP178 T00061006
KMKL 050653Z AUTO 00000KT 10SM CLR 01/M01 A3004 RMK AO2 SLP173 T00061006
KMKL 050553Z AUTO 00000KT 10SM CLR 00/M01 A3003 RMK AO2 SLP171 T00001006 10083 20000 401441006 53001
KMKL 050453Z AUTO 00000KT 10SM CLR 01/00 A3003 RMK AO2 SLP170 T00110000
KMKL 050353Z AUTO 00000KT 10SM CLR 01/00 A3003 RMK AO2 SLP169 T00110000
KMKL 050253Z AUTO 19003KT 10SM CLR 02/M01 A3003 RMK AO2 SLP172 T00171006 53010
KMKL 050153Z AUTO 20003KT 10SM CLR 04/00 A3002 RMK AO2 SLP166 T00390000
KMKL 050053Z AUTO 00000KT 10SM CLR 07/01 A3000 RMK AO2 SLP162 T00670006
KMKL 042353Z 26004KT 10SM CLR 08/00 A3000 RMK AO2 SLP161 T00780000 10144 20078 51012
KMKL 042253Z 28004KT 10SM CLR 11/M01 A2999 RMK AO2 SLP155 T01061006
KMKL 042153Z 30007KT 10SM CLR 14/M01 A2998 RMK AO2 SLP153 T01391006
KMKL 042053Z 31007KT 10SM CLR 14/M01 A2997 RMK AO2 SLP148 T01441006 55005
KMKL 041953Z 28009KT 10SM CLR 14/00 A2995 RMK AO2 SLP141 T01440000
KMKL 041853Z VRB06KT 10SM CLR 13/01 A2997 RMK AO2 SLP147 T01330011
KMKL 041753Z 27010KT 10SM CLR 13/02 A2998 RMK AO2 SLP153 T01280017 10128 21006 58002
KMKL 041653Z VRB04KT 10SM CLR 12/02 A2999 RMK AO2 SLP157 T01170022
KMKL 041553Z 29007KT 10SM CLR 09/02 A3001 RMK AO2 SLP162 T00940022
KMKL 041453Z 29006KT 10SM CLR 07/02 A2999 RMK AO2 SLP156 T00720017 53019
KMKL 041353Z 25006KT 10SM CLR 04/01 A2996 RMK AO2 SLP148 T00440011